createdAt,value
2018-11-13T00:00:47.876Z,43.62
2018-11-13T00:01:47.790Z,43.34
2018-11-13T00:02:47.674Z,43.34
2018-11-13T00:03:47.578Z,43.72
2018-11-13T00:04:47.474Z,43.72
2018-11-13T00:05:47.377Z,43.43
2018-11-13T00:06:47.290Z,43.53
2018-11-13T00:07:47.175Z,43.34
2018-11-13T00:08:47.081Z,43.24
2018-11-13T00:09:46.976Z,42.68
2018-11-13T00:10:46.876Z,42.77
2018-11-13T00:11:46.794Z,42.39
2018-11-13T00:12:46.677Z,42.49
2018-11-13T00:13:46.577Z,42.58
2018-11-13T00:14:46.478Z,42.39
2018-11-13T00:15:46.379Z,42.77
2018-11-13T00:16:46.294Z,42.86
2018-11-13T00:17:46.177Z,42.86
2018-11-13T00:18:46.078Z,42.86
2018-11-13T00:19:45.979Z,42.86
2018-11-13T00:20:45.880Z,43.34
2018-11-13T00:21:45.797Z,43.62
2018-11-13T00:22:45.681Z,43.62
2018-11-13T00:23:45.579Z,43.91
2018-11-13T00:24:45.480Z,44.10
2018-11-13T00:25:45.379Z,44.48
2018-11-13T00:26:45.294Z,43.82
2018-11-13T00:27:45.289Z,43.72
2018-11-13T00:28:45.083Z,44.38
2018-11-13T00:29:44.980Z,44.10
2018-11-13T00:30:44.880Z,45.05
2018-11-13T00:31:44.796Z,44.76
2018-11-13T00:32:44.679Z,45.43
2018-11-13T00:33:44.582Z,45.52
2018-11-13T00:34:44.480Z,45.81
2018-11-13T00:35:44.378Z,45.90
2018-11-13T00:36:44.296Z,46.28
2018-11-13T00:37:44.184Z,46.75
2018-11-13T00:38:44.083Z,47.42
2018-11-13T00:39:43.991Z,48.08
2018-11-13T00:40:43.879Z,49.24
2018-11-13T00:41:43.794Z,50.55
2018-11-13T00:42:43.679Z,51.68
2018-11-13T00:43:43.580Z,51.81
2018-11-13T00:44:43.479Z,52.66
2018-11-13T00:45:43.777Z,53.70
2018-11-13T00:46:43.297Z,54.75
2018-11-13T00:47:43.181Z,55.79
2018-11-13T00:48:43.080Z,56.55
2018-11-13T00:49:42.982Z,57.88
2018-11-13T00:50:42.897Z,58.89
2018-11-13T00:51:42.795Z,58.73
2018-11-13T00:52:42.681Z,59.97
2018-11-13T00:53:42.581Z,59.49
2018-11-13T00:54:42.494Z,59.97
2018-11-13T00:55:42.391Z,60.35
2018-11-13T00:56:42.300Z,59.68
2018-11-13T00:57:42.181Z,60.06
2018-11-13T00:58:42.081Z,59.97
2018-11-13T00:59:41.985Z,60.73
2018-11-13T01:00:41.913Z,61.68
2018-11-13T01:01:41.801Z,62.24
2018-11-13T01:02:41.682Z,62.91
2018-11-13T01:03:41.582Z,63.10
2018-11-13T01:04:41.482Z,64.52
2018-11-13T01:05:41.409Z,64.14
2018-11-13T01:06:41.298Z,64.43
2018-11-13T01:07:41.233Z,64.81
2018-11-13T01:08:41.082Z,64.52
2018-11-13T01:09:40.980Z,64.81
2018-11-13T01:10:40.883Z,64.71
2018-11-13T01:11:40.811Z,65.47
2018-11-13T01:12:40.686Z,65.85
2018-11-13T01:13:40.586Z,65.95
2018-11-13T01:14:40.489Z,65.85
2018-11-13T01:15:40.383Z,67.08
2018-11-13T01:16:40.732Z,67.08
2018-11-13T01:17:40.185Z,67.85
2018-11-13T01:18:40.086Z,67.94
2018-11-13T01:19:39.984Z,68.13
2018-11-13T01:20:39.884Z,67.94
2018-11-13T01:21:39.912Z,68.73
2018-11-13T01:22:39.694Z,68.64
2018-11-13T01:23:39.604Z,69.40
2018-11-13T01:24:39.487Z,69.21
2018-11-13T01:25:39.386Z,68.83
2018-11-13T01:26:39.288Z,69.40
2018-11-13T01:27:39.203Z,69.49
2018-11-13T01:28:39.189Z,69.68
2018-11-13T01:29:38.988Z,69.78
2018-11-13T01:30:38.891Z,70.25
2018-11-13T01:31:38.806Z,70.44
2018-11-13T01:32:38.696Z,70.44
2018-11-13T01:33:38.587Z,70.54
2018-11-13T01:34:38.490Z,71.11
2018-11-13T01:35:38.489Z,70.92
2018-11-13T01:36:38.292Z,71.17
2018-11-13T01:37:38.207Z,71.73
2018-11-13T01:38:38.095Z,71.73
2018-11-13T01:39:37.993Z,71.92
2018-11-13T01:40:37.895Z,71.83
2018-11-13T01:41:37.839Z,71.55
2018-11-13T01:42:37.821Z,71.92
2018-11-13T01:43:37.595Z,71.73
2018-11-13T01:44:37.498Z,71.64
2018-11-13T01:45:37.396Z,71.55
2018-11-13T01:46:37.304Z,71.55
2018-11-13T01:47:37.211Z,71.45
2018-11-13T01:48:37.096Z,71.45
2018-11-13T01:49:37.164Z,71.26
2018-11-13T01:50:36.899Z,71.55
2018-11-13T01:51:36.799Z,71.55
2018-11-13T01:52:36.714Z,70.69
2018-11-13T01:53:36.596Z,70.78
2018-11-13T01:54:36.498Z,70.59
2018-11-13T01:55:36.401Z,70.88
2018-11-13T01:56:36.402Z,70.59
2018-11-13T01:57:36.214Z,71.55
2018-11-13T01:58:36.107Z,71.26
2018-11-13T01:59:36.003Z,71.26
2018-11-13T02:00:35.900Z,71.17
2018-11-13T02:01:35.799Z,70.98
2018-11-13T02:02:35.717Z,71.07
2018-11-13T02:03:35.709Z,70.98
2018-11-13T02:04:35.506Z,70.98
2018-11-13T02:05:35.404Z,71.55
2018-11-13T02:06:35.302Z,71.26
2018-11-13T02:07:35.219Z,71.55
2018-11-13T02:08:35.105Z,71.26
2018-11-13T02:09:35.002Z,71.92
2018-11-13T02:10:34.904Z,72.15
2018-11-13T02:11:34.804Z,72.11
2018-11-13T02:12:34.727Z,72.02
2018-11-13T02:13:34.605Z,72.21
2018-11-13T02:14:34.506Z,72.30
2018-11-13T02:15:34.405Z,72.59
2018-11-13T02:16:34.308Z,72.49
2018-11-13T02:17:34.340Z,72.88
2018-11-13T02:18:34.108Z,72.68
2018-11-13T02:19:34.008Z,72.81
2018-11-13T02:20:33.909Z,72.81
2018-11-13T02:21:33.808Z,73.00
2018-11-13T02:22:33.725Z,72.91
2018-11-13T02:23:33.721Z,73.48
2018-11-13T02:24:33.514Z,73.86
2018-11-13T02:25:33.411Z,73.86
2018-11-13T02:26:33.312Z,74.24
2018-11-13T02:27:33.229Z,74.15
2018-11-13T02:28:33.121Z,73.86
2018-11-13T02:29:33.016Z,74.71
2018-11-13T02:30:32.916Z,74.71
2018-11-13T02:31:32.815Z,74.62
2018-11-13T02:32:32.736Z,74.24
2018-11-13T02:33:32.616Z,75.28
2018-11-13T02:34:32.517Z,75.47
2018-11-13T02:35:32.482Z,75.67
2018-11-13T02:36:32.317Z,75.76
2018-11-13T02:37:32.233Z,75.67
2018-11-13T02:38:32.118Z,75.85
2018-11-13T02:39:32.020Z,76.14
2018-11-13T02:40:31.921Z,76.37
2018-11-13T02:41:31.821Z,76.84
2018-11-13T02:42:31.739Z,77.03
2018-11-13T02:43:31.626Z,77.66
2018-11-13T02:44:31.524Z,77.75
2018-11-13T02:45:31.423Z,77.66
2018-11-13T02:46:31.325Z,77.66
2018-11-13T02:47:31.243Z,76.90
2018-11-13T02:48:31.127Z,77.37
2018-11-13T02:49:31.025Z,77.37
2018-11-13T02:50:30.943Z,77.18
2018-11-13T02:51:30.831Z,77.37
2018-11-13T02:52:30.744Z,76.80
2018-11-13T02:53:30.630Z,76.80
2018-11-13T02:54:30.529Z,76.39
2018-11-13T02:55:30.430Z,76.80
2018-11-13T02:56:30.334Z,76.29
2018-11-13T02:57:30.251Z,76.48
2018-11-13T02:58:30.133Z,76.29
2018-11-13T02:59:30.034Z,75.43
2018-11-13T03:00:29.934Z,75.67
2018-11-13T03:01:29.835Z,75.95
2018-11-13T03:02:29.755Z,75.67
2018-11-13T03:03:29.637Z,76.14
2018-11-13T03:04:29.538Z,75.85
2018-11-13T03:05:29.436Z,76.14
2018-11-13T03:06:29.340Z,75.85
2018-11-13T03:07:29.257Z,76.14
2018-11-13T03:08:29.140Z,75.67
2018-11-13T03:09:29.039Z,75.95
2018-11-13T03:10:28.943Z,76.14
2018-11-13T03:11:28.843Z,75.95
2018-11-13T03:12:28.759Z,75.47
2018-11-13T03:13:28.668Z,76.52
2018-11-13T03:14:28.543Z,75.95
2018-11-13T03:15:28.445Z,76.32
2018-11-13T03:16:28.345Z,75.85
2018-11-13T03:17:28.246Z,76.23
2018-11-13T03:18:28.173Z,76.71
2018-11-13T03:19:28.046Z,76.23
2018-11-13T03:20:27.950Z,76.32
2018-11-13T03:21:27.847Z,76.52
2018-11-13T03:22:27.750Z,76.42
2018-11-13T03:23:27.665Z,76.71
2018-11-13T03:24:27.549Z,76.52
2018-11-13T03:25:27.452Z,77.18
2018-11-13T03:26:27.351Z,77.28
2018-11-13T03:27:27.254Z,76.71
2018-11-13T03:28:27.170Z,76.80
2018-11-13T03:29:27.055Z,76.99
2018-11-13T03:30:26.955Z,77.28
2018-11-13T03:31:26.955Z,76.99
2018-11-13T03:32:26.759Z,77.09
2018-11-13T03:33:26.672Z,77.09
2018-11-13T03:34:26.557Z,77.18
2018-11-13T03:35:26.460Z,76.80
2018-11-13T03:36:26.359Z,77.18
2018-11-13T03:37:26.260Z,77.09
2018-11-13T03:38:26.178Z,77.66
2018-11-13T03:39:26.062Z,77.09
2018-11-13T03:40:25.965Z,77.28
2018-11-13T03:41:25.862Z,77.28
2018-11-13T03:42:25.764Z,77.09
2018-11-13T03:43:25.679Z,76.61
2018-11-13T03:44:25.571Z,76.42
2018-11-13T03:45:25.466Z,76.61
2018-11-13T03:46:25.366Z,76.80
2018-11-13T03:47:25.386Z,77.09
2018-11-13T03:48:25.185Z,76.14
2018-11-13T03:49:25.072Z,76.80
2018-11-13T03:50:24.969Z,76.67
2018-11-13T03:51:24.871Z,75.91
2018-11-13T03:52:24.774Z,75.43
2018-11-13T03:53:24.688Z,75.43
2018-11-13T03:54:24.714Z,75.15
2018-11-13T03:55:24.484Z,74.20
2018-11-13T03:56:24.378Z,74.49
2018-11-13T03:57:24.278Z,74.68
2018-11-13T03:58:24.194Z,74.58
2018-11-13T03:59:24.080Z,74.33
2018-11-13T04:00:23.981Z,74.62
2018-11-13T04:01:23.984Z,75.28
2018-11-13T04:02:23.780Z,75.28
2018-11-13T04:03:23.698Z,75.85
2018-11-13T04:04:23.582Z,75.67
2018-11-13T04:05:23.484Z,76.52
2018-11-13T04:06:23.402Z,76.42
2018-11-13T04:07:23.284Z,76.32
2018-11-13T04:08:23.312Z,75.57
2018-11-13T04:09:23.084Z,75.43
2018-11-13T04:10:22.989Z,75.24
2018-11-13T04:11:22.890Z,75.43
2018-11-13T04:12:22.788Z,75.09
2018-11-13T04:13:22.711Z,75.43
2018-11-13T04:14:22.590Z,74.68
2018-11-13T04:15:22.605Z,74.87
2018-11-13T04:16:22.394Z,74.87
2018-11-13T04:17:22.290Z,74.58
2018-11-13T04:18:22.209Z,74.43
2018-11-13T04:19:22.094Z,74.49
2018-11-13T04:20:21.995Z,74.58
2018-11-13T04:21:21.895Z,74.68
2018-11-13T04:22:21.905Z,74.58
2018-11-13T04:23:21.716Z,74.01
2018-11-13T04:24:21.598Z,73.82
2018-11-13T04:25:21.521Z,74.58
2018-11-13T04:26:21.403Z,74.58
2018-11-13T04:27:21.300Z,74.68
2018-11-13T04:28:21.219Z,74.11
2018-11-13T04:29:21.203Z,74.39
2018-11-13T04:30:21.007Z,73.63
2018-11-13T04:31:20.903Z,73.72
2018-11-13T04:32:20.806Z,73.72
2018-11-13T04:33:20.734Z,73.63
2018-11-13T04:34:20.605Z,73.54
2018-11-13T04:35:20.509Z,73.54
2018-11-13T04:36:20.519Z,73.54
2018-11-13T04:37:20.308Z,73.07
2018-11-13T04:38:20.233Z,73.29
2018-11-13T04:39:20.110Z,73.00
2018-11-13T04:40:20.019Z,73.76
2018-11-13T04:41:19.913Z,74.52
2018-11-13T04:42:19.811Z,74.43
2018-11-13T04:43:19.839Z,74.15
2018-11-13T04:44:19.614Z,74.43
2018-11-13T04:45:19.516Z,73.92
2018-11-13T04:46:19.416Z,73.63
2018-11-13T04:47:19.319Z,74.30
2018-11-13T04:48:19.234Z,73.72
2018-11-13T04:49:19.119Z,74.11
2018-11-13T04:50:19.128Z,73.35
2018-11-13T04:51:18.925Z,73.07
2018-11-13T04:52:18.824Z,72.78
2018-11-13T04:53:18.737Z,72.49
2018-11-13T04:54:18.622Z,72.40
2018-11-13T04:55:18.521Z,71.64
2018-11-13T04:56:18.429Z,71.64
2018-11-13T04:57:18.329Z,70.78
2018-11-13T04:58:18.240Z,70.50
2018-11-13T04:59:18.127Z,70.78
2018-11-13T05:00:18.027Z,70.78
2018-11-13T05:01:17.927Z,70.50
2018-11-13T05:02:17.829Z,70.21
2018-11-13T05:03:17.730Z,70.98
2018-11-13T05:04:17.648Z,71.07
2018-11-13T05:05:17.530Z,70.69
2018-11-13T05:06:17.430Z,71.45
2018-11-13T05:07:17.335Z,71.64
2018-11-13T05:08:17.237Z,72.11
2018-11-13T05:09:17.148Z,72.49
2018-11-13T05:10:17.109Z,71.92
2018-11-13T05:11:16.935Z,71.83
2018-11-13T05:12:16.836Z,72.59
2018-11-13T05:13:16.738Z,72.21
2018-11-13T05:14:16.653Z,71.92
2018-11-13T05:15:16.540Z,72.11
2018-11-13T05:16:16.440Z,71.45
2018-11-13T05:17:16.343Z,71.36
2018-11-13T05:18:16.242Z,71.45
2018-11-13T05:19:16.158Z,71.36
2018-11-13T05:20:16.039Z,71.73
2018-11-13T05:21:15.941Z,72.11
2018-11-13T05:22:15.843Z,71.83
2018-11-13T05:23:15.817Z,71.77
2018-11-13T05:24:15.659Z,71.77
2018-11-13T05:25:15.546Z,71.77
2018-11-13T05:26:15.447Z,72.53
2018-11-13T05:27:15.352Z,72.11
2018-11-13T05:28:15.246Z,71.64
2018-11-13T05:29:15.161Z,72.11
2018-11-13T05:30:15.047Z,72.15
2018-11-13T05:31:14.948Z,72.59
2018-11-13T05:32:14.853Z,72.40
2018-11-13T05:33:14.750Z,71.83
2018-11-13T05:34:14.670Z,72.02
2018-11-13T05:35:14.552Z,71.55
2018-11-13T05:36:14.453Z,72.49
2018-11-13T05:37:14.352Z,71.83
2018-11-13T05:38:14.255Z,71.67
2018-11-13T05:39:14.173Z,72.40
2018-11-13T05:40:14.057Z,71.92
2018-11-13T05:41:13.954Z,72.30
2018-11-13T05:42:13.855Z,72.49
2018-11-13T05:43:13.758Z,71.64
2018-11-13T05:44:13.676Z,71.77
2018-11-13T05:45:13.558Z,72.06
2018-11-13T05:46:13.463Z,72.25
2018-11-13T05:47:13.445Z,72.53
2018-11-13T05:48:13.260Z,72.72
2018-11-13T05:49:13.177Z,72.34
2018-11-13T05:50:13.061Z,72.91
2018-11-13T05:51:12.963Z,72.91
2018-11-13T05:52:12.862Z,72.91
2018-11-13T05:53:12.765Z,72.53
2018-11-13T05:54:12.680Z,72.72
2018-11-13T05:55:12.566Z,72.72
2018-11-13T05:56:12.466Z,72.15
2018-11-13T05:57:12.365Z,72.34
2018-11-13T05:58:12.265Z,72.06
2018-11-13T05:59:12.183Z,72.15
2018-11-13T06:00:12.069Z,72.81
2018-11-13T06:01:11.969Z,72.63
2018-11-13T06:02:11.871Z,72.44
2018-11-13T06:03:11.774Z,72.81
2018-11-13T06:04:11.691Z,72.44
2018-11-13T06:05:11.584Z,73.00
2018-11-13T06:06:11.473Z,73.10
2018-11-13T06:07:11.374Z,72.72
2018-11-13T06:08:11.274Z,72.63
2018-11-13T06:09:11.191Z,72.49
2018-11-13T06:10:11.076Z,72.34
2018-11-13T06:11:10.978Z,72.44
2018-11-13T06:12:10.877Z,73.19
2018-11-13T06:13:10.776Z,72.49
2018-11-13T06:14:10.757Z,71.48
2018-11-13T06:15:10.581Z,72.06
2018-11-13T06:16:10.480Z,71.58
2018-11-13T06:17:10.377Z,72.15
2018-11-13T06:18:10.305Z,71.39
2018-11-13T06:19:10.202Z,72.21
2018-11-13T06:20:10.090Z,71.73
2018-11-13T06:21:09.984Z,71.26
2018-11-13T06:22:09.884Z,71.64
2018-11-13T06:23:09.862Z,70.92
2018-11-13T06:24:09.699Z,70.82
2018-11-13T06:25:09.584Z,70.73
2018-11-13T06:26:09.486Z,71.17
2018-11-13T06:27:09.385Z,71.07
2018-11-13T06:28:09.288Z,70.35
2018-11-13T06:29:09.205Z,71.07
2018-11-13T06:30:09.088Z,70.98
2018-11-13T06:31:08.989Z,70.59
2018-11-13T06:32:08.890Z,70.78
2018-11-13T06:33:08.791Z,71.17
2018-11-13T06:34:08.708Z,70.69
2018-11-13T06:35:08.890Z,70.69
2018-11-13T06:36:08.492Z,70.69
2018-11-13T06:37:08.397Z,70.59
2018-11-13T06:38:08.295Z,70.40
2018-11-13T06:39:08.211Z,70.21
2018-11-13T06:40:08.109Z,69.49
2018-11-13T06:41:07.998Z,69.93
2018-11-13T06:42:07.999Z,69.49
2018-11-13T06:43:07.800Z,70.54
2018-11-13T06:44:07.716Z,70.82
2018-11-13T06:45:07.606Z,70.35
2018-11-13T06:46:07.498Z,69.68
2018-11-13T06:47:07.401Z,70.44
2018-11-13T06:48:07.300Z,71.01
2018-11-13T06:49:07.375Z,71.20
2018-11-13T06:50:07.118Z,71.58
2018-11-13T06:51:07.001Z,71.48
2018-11-13T06:52:06.903Z,71.58
2018-11-13T06:53:06.802Z,71.86
2018-11-13T06:54:06.707Z,71.58
2018-11-13T06:55:06.621Z,71.67
2018-11-13T06:56:06.611Z,71.39
2018-11-13T06:57:06.407Z,71.48
2018-11-13T06:58:06.308Z,72.15
2018-11-13T06:59:06.242Z,71.86
2018-11-13T07:00:06.123Z,71.67
2018-11-13T07:01:06.009Z,71.77
2018-11-13T07:02:05.912Z,72.06
2018-11-13T07:03:05.916Z,71.96
2018-11-13T07:04:05.717Z,72.44
2018-11-13T07:05:05.710Z,72.44
2018-11-13T07:06:05.513Z,72.72
2018-11-13T07:07:05.412Z,72.53
2018-11-13T07:08:05.315Z,72.72
2018-11-13T07:09:05.216Z,73.10
2018-11-13T07:10:05.243Z,72.72
2018-11-13T07:11:05.025Z,73.19
2018-11-13T07:12:04.917Z,73.57
2018-11-13T07:13:04.818Z,73.48
2018-11-13T07:14:04.720Z,73.00
2018-11-13T07:15:04.637Z,73.00
2018-11-13T07:16:04.522Z,73.00
2018-11-13T07:17:04.532Z,73.10
2018-11-13T07:18:04.327Z,73.38
2018-11-13T07:19:04.226Z,73.57
2018-11-13T07:20:04.142Z,72.91
2018-11-13T07:21:04.025Z,73.67
2018-11-13T07:22:03.927Z,73.76
2018-11-13T07:23:03.831Z,73.52
2018-11-13T07:24:03.833Z,73.42
2018-11-13T07:25:03.647Z,73.90
2018-11-13T07:26:03.535Z,73.42
2018-11-13T07:27:03.519Z,73.23
2018-11-13T07:28:03.349Z,73.90
2018-11-13T07:29:03.234Z,73.80
2018-11-13T07:30:03.157Z,73.33
2018-11-13T07:31:03.142Z,73.90
2018-11-13T07:32:02.950Z,73.71
2018-11-13T07:33:02.845Z,73.42
2018-11-13T07:34:02.744Z,73.90
2018-11-13T07:35:02.661Z,73.90
2018-11-13T07:36:02.545Z,74.08
2018-11-13T07:37:02.446Z,73.90
2018-11-13T07:38:02.468Z,74.56
2018-11-13T07:39:02.254Z,73.80
2018-11-13T07:40:02.180Z,74.08
2018-11-13T07:41:02.089Z,74.56
2018-11-13T07:42:01.955Z,73.71
2018-11-13T07:43:01.858Z,74.56
2018-11-13T07:44:01.758Z,73.71
2018-11-13T07:45:01.680Z,74.56
2018-11-13T07:46:01.563Z,73.80
2018-11-13T07:47:01.496Z,73.33
2018-11-13T07:48:01.423Z,72.38
2018-11-13T07:49:01.266Z,72.25
2018-11-13T07:50:01.189Z,71.39
2018-11-13T07:51:01.087Z,71.77
2018-11-13T07:52:01.077Z,71.48
2018-11-13T07:53:00.872Z,71.20
2018-11-13T07:54:00.901Z,71.01
2018-11-13T07:55:00.714Z,70.25
2018-11-13T07:56:00.580Z,69.91
2018-11-13T07:57:01.176Z,69.81
2018-11-13T07:58:00.386Z,69.62
2018-11-13T07:59:00.282Z,69.43
2018-11-13T08:00:00.199Z,69.62
2018-11-13T08:01:00.083Z,69.43
2018-11-13T08:01:59.987Z,70.73
2018-11-13T08:02:59.885Z,69.96
2018-11-13T08:03:59.789Z,69.30
2018-11-13T08:04:59.704Z,69.21
2018-11-13T08:05:59.599Z,69.34
2018-11-13T08:06:59.492Z,68.92
2018-11-13T08:07:59.399Z,68.96
2018-11-13T08:08:59.294Z,68.92
2018-11-13T08:09:59.211Z,68.39
2018-11-13T08:10:59.097Z,69.15
2018-11-13T08:11:58.999Z,68.77
2018-11-13T08:12:59.043Z,68.48
2018-11-13T08:13:58.802Z,69.15
2018-11-13T08:14:58.719Z,68.67
2018-11-13T08:15:58.608Z,67.91
2018-11-13T08:16:58.508Z,68.01
2018-11-13T08:17:58.412Z,68.01
2018-11-13T08:18:58.369Z,67.72
2018-11-13T08:19:58.229Z,67.25
2018-11-13T08:20:58.126Z,66.87
2018-11-13T08:21:58.044Z,66.67
2018-11-13T08:22:57.921Z,66.67
2018-11-13T08:23:57.818Z,66.39
2018-11-13T08:24:57.721Z,66.11
2018-11-13T08:25:57.639Z,66.01
2018-11-13T08:26:57.572Z,65.73
2018-11-13T08:27:57.431Z,65.82
2018-11-13T08:28:57.432Z,66.49
2018-11-13T08:29:57.228Z,66.58
2018-11-13T08:30:57.147Z,66.49
2018-11-13T08:31:57.038Z,66.30
2018-11-13T08:32:56.962Z,66.39
2018-11-13T08:33:56.835Z,66.39
2018-11-13T08:34:56.876Z,66.39
2018-11-13T08:35:56.658Z,66.77
2018-11-13T08:36:56.543Z,66.49
2018-11-13T08:37:56.444Z,66.11
2018-11-13T08:38:56.347Z,65.82
2018-11-13T08:39:56.249Z,65.73
2018-11-13T08:40:56.166Z,66.20
2018-11-13T08:41:56.049Z,65.63
2018-11-13T08:42:55.953Z,65.16
2018-11-13T08:43:55.907Z,64.78
2018-11-13T08:44:55.761Z,63.73
2018-11-13T08:45:55.679Z,63.17
2018-11-13T08:46:55.559Z,63.64
2018-11-13T08:47:55.469Z,63.73
2018-11-13T08:48:55.363Z,63.92
2018-11-13T08:49:55.266Z,64.21
2018-11-13T08:50:55.231Z,64.40
2018-11-13T08:51:55.085Z,64.21
2018-11-13T08:52:54.969Z,64.11
2018-11-13T08:53:54.873Z,63.54
2018-11-13T08:54:54.773Z,63.35
2018-11-13T08:55:54.677Z,63.54
2018-11-13T08:56:54.598Z,63.26
2018-11-13T08:57:54.482Z,64.30
2018-11-13T08:58:54.512Z,65.44
2018-11-13T08:59:54.284Z,65.44
2018-11-13T09:00:54.184Z,65.35
2018-11-13T09:01:54.103Z,64.75
2018-11-13T09:02:53.997Z,64.59
2018-11-13T09:03:53.895Z,64.94
2018-11-13T09:04:53.795Z,65.03
2018-11-13T09:05:53.693Z,64.65
2018-11-13T09:06:53.612Z,64.56
2018-11-13T09:07:53.499Z,64.17
2018-11-13T09:08:53.398Z,64.08
2018-11-13T09:09:53.300Z,64.30
2018-11-13T09:10:53.202Z,63.79
2018-11-13T09:11:53.203Z,63.13
2018-11-13T09:12:53.005Z,63.54
2018-11-13T09:13:52.906Z,62.69
2018-11-13T09:14:52.915Z,62.97
2018-11-13T09:15:52.711Z,62.31
2018-11-13T09:16:52.628Z,62.59
2018-11-13T09:17:52.524Z,62.50
2018-11-13T09:18:52.490Z,62.59
2018-11-13T09:19:52.320Z,62.31
2018-11-13T09:20:52.218Z,62.21
2018-11-13T09:21:52.296Z,62.02
2018-11-13T09:22:52.091Z,61.36
2018-11-13T09:23:51.930Z,60.79
2018-11-13T09:24:51.826Z,59.84
2018-11-13T09:25:51.727Z,60.03
2018-11-13T09:26:51.630Z,60.03
2018-11-13T09:27:51.546Z,60.13
2018-11-13T09:28:51.536Z,59.55
2018-11-13T09:29:51.359Z,59.08
2018-11-13T09:30:51.684Z,58.13
2018-11-13T09:31:51.172Z,58.16
2018-11-13T09:32:51.242Z,57.87
2018-11-13T09:33:50.939Z,57.40
2018-11-13T09:34:50.842Z,56.63
2018-11-13T09:35:50.853Z,56.07
2018-11-13T09:36:50.646Z,55.50
2018-11-13T09:37:50.565Z,55.02
2018-11-13T09:38:50.448Z,54.45
2018-11-13T09:39:50.351Z,54.45
2018-11-13T09:40:50.254Z,53.50
2018-11-13T09:41:50.154Z,53.03
2018-11-13T09:42:50.202Z,53.05
2018-11-13T09:43:49.961Z,53.24
2018-11-13T09:44:49.897Z,52.93
2018-11-13T09:45:49.770Z,55.11
2018-11-13T09:46:49.670Z,57.50
2018-11-13T09:47:49.627Z,58.92
2018-11-13T09:48:49.468Z,59.20
2018-11-13T09:49:49.479Z,59.55
2018-11-13T09:50:49.353Z,58.83
2018-11-13T09:51:49.175Z,58.35
2018-11-13T09:52:49.094Z,57.30
2018-11-13T09:53:49.037Z,56.92
2018-11-13T09:54:48.883Z,58.06
2018-11-13T09:55:48.787Z,57.50
2018-11-13T09:56:48.797Z,58.13
2018-11-13T09:57:48.604Z,58.13
2018-11-13T09:58:48.543Z,58.03
2018-11-13T09:59:48.443Z,58.03
2018-11-13T10:00:48.518Z,57.46
2018-11-13T10:01:48.923Z,57.46
2018-11-13T10:02:48.769Z,57.28
2018-11-13T10:03:48.941Z,57.37
2018-11-13T10:04:48.686Z,57.28
2018-11-13T10:05:47.838Z,58.03
2018-11-13T10:06:47.711Z,58.32
2018-11-13T10:07:47.624Z,57.75
2018-11-13T10:08:47.512Z,57.84
2018-11-13T10:09:47.412Z,57.84
2018-11-13T10:10:47.405Z,57.75
2018-11-13T10:11:47.219Z,58.98
2018-11-13T10:12:47.133Z,59.08
2018-11-13T10:13:47.021Z,59.93
2018-11-13T10:14:46.921Z,59.91
2018-11-13T10:15:46.827Z,59.52
2018-11-13T10:16:46.728Z,58.32
2018-11-13T10:17:46.769Z,58.13
2018-11-13T10:18:46.530Z,57.84
2018-11-13T10:19:46.432Z,58.03
2018-11-13T10:20:46.333Z,57.75
2018-11-13T10:21:46.238Z,57.18
2018-11-13T10:22:46.156Z,57.46
2018-11-13T10:23:46.141Z,57.09
2018-11-13T10:24:45.939Z,57.18
2018-11-13T10:25:45.843Z,56.99
2018-11-13T10:26:45.746Z,57.43
2018-11-13T10:27:45.753Z,57.56
2018-11-13T10:28:45.564Z,57.43
2018-11-13T10:29:45.474Z,57.62
2018-11-13T10:30:45.368Z,56.39
2018-11-13T10:31:45.255Z,56.68
2018-11-13T10:32:45.161Z,55.91
2018-11-13T10:33:45.074Z,55.94
2018-11-13T10:34:44.960Z,55.37
2018-11-13T10:35:44.861Z,54.71
2018-11-13T10:36:44.765Z,54.99
2018-11-13T10:37:44.665Z,55.37
2018-11-13T10:38:44.582Z,55.37
2018-11-13T10:39:44.471Z,55.25
2018-11-13T10:40:44.508Z,55.57
2018-11-13T10:41:44.268Z,55.47
2018-11-13T10:42:44.171Z,55.44
2018-11-13T10:43:44.088Z,55.25
2018-11-13T10:44:43.972Z,55.35
2018-11-13T10:45:43.877Z,56.29
2018-11-13T10:46:43.776Z,55.25
2018-11-13T10:47:43.678Z,55.35
2018-11-13T10:48:43.605Z,55.54
2018-11-13T10:49:43.482Z,55.54
2018-11-13T10:50:43.382Z,55.44
2018-11-13T10:51:43.285Z,54.97
2018-11-13T10:52:43.188Z,54.87
2018-11-13T10:53:43.103Z,54.39
2018-11-13T10:54:42.988Z,54.58
2018-11-13T10:55:42.891Z,54.02
2018-11-13T10:56:42.791Z,54.11
2018-11-13T10:57:42.694Z,53.35
2018-11-13T10:58:42.614Z,53.73
2018-11-13T10:59:42.496Z,53.64
2018-11-13T11:00:42.397Z,52.97
2018-11-13T11:01:42.298Z,52.43
2018-11-13T11:02:42.259Z,52.43
2018-11-13T11:03:42.116Z,51.67
2018-11-13T11:04:42.002Z,51.67
2018-11-13T11:05:41.904Z,51.01
2018-11-13T11:06:41.806Z,51.39
2018-11-13T11:07:41.713Z,51.57
2018-11-13T11:08:41.628Z,51.76
2018-11-13T11:09:41.512Z,51.39
2018-11-13T11:10:41.410Z,51.29
2018-11-13T11:11:41.314Z,51.67
2018-11-13T11:12:41.256Z,51.39
2018-11-13T11:13:41.186Z,51.20
2018-11-13T11:14:41.038Z,51.29
2018-11-13T11:15:40.952Z,51.67
2018-11-13T11:16:40.820Z,52.05
2018-11-13T11:17:40.721Z,52.24
2018-11-13T11:18:40.690Z,52.33
2018-11-13T11:19:40.541Z,52.05
2018-11-13T11:20:40.426Z,51.67
2018-11-13T11:21:40.326Z,51.57
2018-11-13T11:22:40.271Z,51.01
2018-11-13T11:23:40.259Z,51.29
2018-11-13T11:24:40.048Z,51.67
2018-11-13T11:25:39.935Z,51.57
2018-11-13T11:26:39.835Z,51.39
2018-11-13T11:27:39.738Z,51.01
2018-11-13T11:28:39.640Z,51.29
2018-11-13T11:29:39.557Z,51.67
2018-11-13T11:30:39.443Z,50.93
2018-11-13T11:31:39.344Z,50.74
2018-11-13T11:32:39.247Z,51.12
2018-11-13T11:33:39.152Z,51.60
2018-11-13T11:34:39.066Z,51.22
2018-11-13T11:35:38.952Z,51.60
2018-11-13T11:36:38.855Z,52.08
2018-11-13T11:37:38.755Z,51.98
2018-11-13T11:38:38.686Z,51.60
2018-11-13T11:39:38.580Z,51.60
2018-11-13T11:40:38.461Z,51.41
2018-11-13T11:41:38.365Z,51.22
2018-11-13T11:42:38.267Z,51.31
2018-11-13T11:43:38.170Z,51.82
2018-11-13T11:44:38.119Z,51.60
2018-11-13T11:45:37.973Z,51.62
2018-11-13T11:46:37.877Z,51.43
2018-11-13T11:47:37.778Z,52.01
2018-11-13T11:48:37.794Z,51.62
2018-11-13T11:49:37.598Z,51.62
2018-11-13T11:50:37.487Z,52.20
2018-11-13T11:51:37.425Z,52.39
2018-11-13T11:52:37.292Z,52.20
2018-11-13T11:53:37.224Z,52.58
2018-11-13T11:54:37.117Z,53.05
2018-11-13T11:55:37.110Z,52.96
2018-11-13T11:56:36.900Z,53.24
2018-11-13T11:57:36.804Z,53.15
2018-11-13T11:58:36.707Z,53.34
2018-11-13T11:59:36.627Z,53.24
2018-11-13T12:00:36.568Z,53.05
2018-11-13T12:01:36.417Z,53.15
2018-11-13T12:02:36.423Z,53.53
2018-11-13T12:03:36.221Z,53.53
2018-11-13T12:04:36.152Z,53.53
2018-11-13T12:05:36.026Z,53.15
2018-11-13T12:06:35.929Z,53.72
2018-11-13T12:07:35.845Z,52.96
2018-11-13T12:08:35.734Z,53.15
2018-11-13T12:09:35.750Z,53.15
2018-11-13T12:10:35.559Z,52.96
2018-11-13T12:11:35.448Z,52.48
2018-11-13T12:12:35.348Z,52.67
2018-11-13T12:13:35.252Z,52.32
2018-11-13T12:14:35.156Z,53.17
2018-11-13T12:15:35.074Z,53.65
2018-11-13T12:16:35.134Z,53.65
2018-11-13T12:17:34.864Z,53.84
2018-11-13T12:18:34.770Z,54.03
2018-11-13T12:19:34.713Z,53.94
2018-11-13T12:20:34.588Z,53.75
2018-11-13T12:21:34.476Z,54.41
2018-11-13T12:22:34.380Z,55.17
2018-11-13T12:23:34.396Z,55.36
2018-11-13T12:24:34.186Z,55.68
2018-11-13T12:25:34.161Z,56.24
2018-11-13T12:26:33.993Z,56.44
2018-11-13T12:27:33.907Z,56.05
2018-11-13T12:28:33.834Z,56.05
2018-11-13T12:29:33.706Z,56.72
2018-11-13T12:30:33.736Z,57.58
2018-11-13T12:31:33.511Z,57.77
2018-11-13T12:32:33.412Z,57.58
2018-11-13T12:33:33.319Z,57.67
2018-11-13T12:34:33.276Z,57.96
2018-11-13T12:35:33.144Z,58.15
2018-11-13T12:36:33.030Z,58.34
2018-11-13T12:37:33.064Z,58.34
2018-11-13T12:38:32.837Z,59.10
2018-11-13T12:39:32.738Z,59.10
2018-11-13T12:40:32.663Z,59.96
2018-11-13T12:41:32.547Z,60.53
2018-11-13T12:42:32.449Z,60.91
2018-11-13T12:43:32.353Z,60.53
2018-11-13T12:44:32.364Z,60.91
2018-11-13T12:45:32.179Z,61.38
2018-11-13T12:46:32.111Z,61.10
2018-11-13T12:47:31.984Z,61.38
2018-11-13T12:48:31.871Z,62.24
2018-11-13T12:49:31.777Z,62.15
2018-11-13T12:50:31.694Z,62.81
2018-11-13T12:51:31.690Z,62.72